Time;durP1;ratioP1;P1;durP2;ratioP2;P2;SDS_P1;SDS_P2;PMS_P1;PMS_P2;Temp;Humidity;BMP_temperature;BMP_pressure;BME280_temperature;BME280_humidity;BME280_pressure;Samples;Min_cycle;Max_cycle;Signal;HPM_P1;HPM_P2
2023/08/16 00:00:44;;;;;;;6.15;4.38;;;21.40;99.90;;;;;;5011578;28;20018;-50
2023/08/16 00:03:30;;;;;;;5.35;4.50;;;21.40;99.90;;;;;;5008042;28;20030;-49
2023/08/16 00:06:16;;;;;;;5.43;4.15;;;21.40;99.90;;;;;;5012992;28;20030;-53
2023/08/16 00:09:02;;;;;;;5.15;4.18;;;21.40;99.90;;;;;;5010219;28;20037;-50
2023/08/16 00:11:48;;;;;;;6.13;4.32;;;21.30;99.90;;;;;;5008472;28;20069;-46
2023/08/16 00:14:34;;;;;;;5.45;3.80;;;21.30;99.90;;;;;;5014033;28;20403;-51
2023/08/16 00:17:20;;;;;;;5.45;4.25;;;21.30;99.90;;;;;;5013293;28;20160;-49
2023/08/16 00:20:08;;;;;;;5.40;4.13;;;21.30;99.90;;;;;;5012405;28;20022;-53
2023/08/16 00:22:54;;;;;;;5.28;4.07;;;21.30;99.90;;;;;;5014387;28;20618;-54
2023/08/16 00:25:40;;;;;;;7.75;4.50;;;21.30;99.90;;;;;;5013546;28;20160;-50
2023/08/16 00:28:27;;;;;;;6.05;4.00;;;21.40;99.90;;;;;;5012999;28;20030;-47
2023/08/16 00:31:13;;;;;;;5.72;4.55;;;21.40;99.90;;;;;;5013839;28;20462;-48
2023/08/16 00:33:59;;;;;;;5.57;4.22;;;21.30;99.90;;;;;;4999682;28;20561;-49
2023/08/16 00:36:45;;;;;;;5.82;4.53;;;21.30;99.90;;;;;;5014475;28;20057;-46
2023/08/16 00:39:31;;;;;;;6.40;4.85;;;21.20;99.90;;;;;;5013136;28;20101;-46
2023/08/16 00:42:16;;;;;;;4.47;4.07;;;21.30;99.90;;;;;;5012630;28;20026;-48
2023/08/16 00:45:03;;;;;;;6.13;4.57;;;21.20;99.90;;;;;;5012928;28;20037;-51
2023/08/16 00:47:49;;;;;;;7.22;4.28;;;21.20;99.90;;;;;;5013409;28;20023;-46
2023/08/16 00:50:35;;;;;;;4.78;4.05;;;21.20;99.90;;;;;;5013439;28;20101;-51
2023/08/16 00:53:22;;;;;;;6.65;4.30;;;21.20;99.90;;;;;;4998945;28;20523;-54
2023/08/16 00:56:08;;;;;;;5.82;4.35;;;21.10;99.90;;;;;;5012263;28;20491;-56
2023/08/16 00:58:54;;;;;;;4.93;4.13;;;21.10;99.90;;;;;;5013049;28;20018;-49
2023/08/16 01:01:41;;;;;;;8.32;4.65;;;21.10;99.90;;;;;;5014709;28;20022;-45
2023/08/16 01:04:27;;;;;;;5.90;4.70;;;21.00;99.90;;;;;;5013218;28;20030;-51
2023/08/16 01:07:14;;;;;;;5.68;4.97;;;21.00;99.90;;;;;;5012812;28;20033;-51
2023/08/16 01:10:00;;;;;;;5.15;4.65;;;21.00;99.90;;;;;;5012906;28;20109;-50
2023/08/16 01:13:01;;;;;;;6.78;6.07;;;21.00;99.90;;;;;;5012694;28;20030;-46
2023/08/16 01:15:49;;;;;;;6.60;5.35;;;21.00;99.90;;;;;;5013095;28;20076;-46
2023/08/16 01:18:42;;;;;;;7.63;5.07;;;21.00;99.90;;;;;;4992531;28;20026;-53
2023/08/16 01:21:33;;;;;;;6.32;5.10;;;20.90;99.90;;;;;;4993042;28;20032;-45
2023/08/16 01:24:42;;;;;;;7.55;6.25;;;20.80;99.90;;;;;;4994410;28;20149;-52
2023/08/16 01:27:28;;;;;;;8.50;6.00;;;20.90;99.90;;;;;;4995374;28;20380;-53
2023/08/16 01:30:15;;;;;;;9.00;6.63;;;20.90;99.90;;;;;;4994128;28;20027;-46
2023/08/16 01:33:09;;;;;;;6.88;5.50;;;20.90;99.90;;;;;;4993799;28;20072;-46
2023/08/16 01:35:55;;;;;;;9.33;6.23;;;20.90;99.90;;;;;;4992880;28;20026;-48
2023/08/16 01:38:41;;;;;;;8.60;6.88;;;20.90;99.90;;;;;;4993214;28;20261;-45
2023/08/16 01:41:42;;;;;;;7.72;5.47;;;20.90;99.90;;;;;;4992473;28;20026;-51
2023/08/16 01:44:30;;;;;;;5.68;5.13;;;20.80;99.90;;;;;;5005636;28;20065;-47
2023/08/16 01:47:17;;;;;;;7.55;5.30;;;20.90;99.90;;;;;;5012075;28;20029;-47
2023/08/16 01:50:04;;;;;;;6.93;5.05;;;20.90;99.90;;;;;;5013256;28;20026;-46
2023/08/16 01:52:50;;;;;;;5.97;5.35;;;20.80;99.90;;;;;;5013686;28;20487;-50
2023/08/16 01:55:36;;;;;;;7.93;5.70;;;20.90;99.90;;;;;;5013278;28;20113;-49
2023/08/16 01:58:22;;;;;;;7.40;6.18;;;20.90;99.90;;;;;;4998391;28;20030;-51
2023/08/16 02:01:08;;;;;;;7.47;5.57;;;20.90;99.90;;;;;;5012678;28;20068;-52
2023/08/16 02:03:54;;;;;;;6.20;5.35;;;21.00;99.90;;;;;;5013023;28;20065;-47
2023/08/16 02:06:40;;;;;;;7.80;5.65;;;20.90;99.90;;;;;;5012414;28;20544;-47
2023/08/16 02:09:26;;;;;;;6.35;5.70;;;20.90;99.90;;;;;;5018954;28;20061;-44
2023/08/16 02:12:12;;;;;;;9.85;6.03;;;21.00;99.90;;;;;;5003526;28;20034;-48
2023/08/16 02:14:58;;;;;;;8.35;5.90;;;20.90;99.90;;;;;;5011225;28;20048;-45
2023/08/16 02:17:44;;;;;;;7.93;5.85;;;20.90;99.90;;;;;;5002219;28;20390;-50
2023/08/16 02:20:30;;;;;;;7.65;5.63;;;20.90;99.90;;;;;;5012013;28;20022;-47
2023/08/16 02:23:16;;;;;;;7.07;5.75;;;20.90;99.90;;;;;;5011465;28;20125;-46
2023/08/16 02:26:02;;;;;;;6.82;6.13;;;20.90;99.90;;;;;;5009386;28;20113;-46
2023/08/16 02:28:49;;;;;;;7.90;6.00;;;20.80;99.90;;;;;;5010572;28;20029;-54
2023/08/16 02:31:35;;;;;;;7.07;6.22;;;20.80;99.90;;;;;;5009091;28;20032;-54
2023/08/16 02:34:21;;;;;;;7.45;6.30;;;20.80;99.90;;;;;;5009853;28;20033;-51
2023/08/16 02:37:07;;;;;;;7.65;6.85;;;20.80;99.90;;;;;;5010698;28;20076;-52
2023/08/16 02:39:57;;;;;;;9.20;7.00;;;20.70;99.90;;;;;;5008692;28;20061;-56
2023/08/16 02:42:43;;;;;;;7.97;7.18;;;20.60;99.90;;;;;;5009337;28;20503;-53
2023/08/16 02:45:28;;;;;;;8.68;6.70;;;20.60;99.90;;;;;;5009425;28;20072;-55
2023/08/16 02:48:14;;;;;;;8.80;6.85;;;20.50;99.90;;;;;;5010576;28;20030;-52
2023/08/16 02:51:00;;;;;;;12.65;6.80;;;20.50;99.90;;;;;;5010922;28;20037;-55
2023/08/16 02:53:46;;;;;;;11.07;7.45;;;20.50;99.90;;;;;;5010629;28;20033;-57
2023/08/16 02:56:32;;;;;;;9.15;7.25;;;20.50;99.90;;;;;;5010632;28;20026;-56
2023/08/16 02:59:20;;;;;;;9.38;6.88;;;20.50;99.90;;;;;;5009840;28;20049;-55
2023/08/16 03:02:06;;;;;;;11.45;7.03;;;20.50;99.90;;;;;;5011636;28;20107;-57
2023/08/16 03:04:51;;;;;;;8.52;6.30;;;20.50;99.90;;;;;;5010949;28;20121;-53
2023/08/16 03:07:39;;;;;;;7.65;6.68;;;20.50;99.90;;;;;;5011679;28;20092;-54
2023/08/16 03:10:25;;;;;;;6.30;5.47;;;20.50;99.90;;;;;;5010918;28;20105;-55
2023/08/16 03:13:11;;;;;;;7.38;5.55;;;20.50;99.90;;;;;;5025740;28;20075;-53
2023/08/16 03:15:57;;;;;;;5.10;4.70;;;20.50;99.90;;;;;;5010669;28;20038;-53
2023/08/16 03:18:43;;;;;;;6.15;4.47;;;20.60;99.90;;;;;;5010496;28;20022;-56
2023/08/16 03:21:29;;;;;;;4.78;4.22;;;20.60;99.90;;;;;;4996557;28;20057;-55
2023/08/16 03:24:15;;;;;;;7.95;5.30;;;20.60;99.90;;;;;;5010974;28;20026;-52
2023/08/16 03:27:01;;;;;;;6.43;5.80;;;20.50;99.90;;;;;;5010724;28;20030;-51
2023/08/16 03:29:47;;;;;;;18.92;7.90;;;20.50;99.90;;;;;;5010532;28;20034;-53
2023/08/16 03:32:33;;;;;;;17.02;7.00;;;20.50;99.90;;;;;;5010339;28;20037;-57
2023/08/16 03:35:19;;;;;;;11.65;5.70;;;20.40;99.90;;;;;;5010392;28;20148;-55
2023/08/16 03:38:05;;;;;;;7.78;6.07;;;20.30;99.90;;;;;;5010624;28;20027;-55
2023/08/16 03:40:50;;;;;;;6.45;5.65;;;20.30;99.90;;;;;;5010909;28;20026;-57
2023/08/16 03:43:37;;;;;;;6.68;5.95;;;20.30;99.90;;;;;;5010169;28;20042;-54
2023/08/16 03:46:22;;;;;;;7.13;6.40;;;20.40;99.90;;;;;;5009593;28;20077;-56
2023/08/16 03:49:08;;;;;;;6.90;6.30;;;20.40;99.90;;;;;;5010628;28;20037;-46
2023/08/16 03:51:54;;;;;;;6.10;5.50;;;20.40;99.90;;;;;;5010662;28;20034;-47
2023/08/16 03:54:40;;;;;;;5.82;5.32;;;20.40;99.90;;;;;;5011263;28;20038;-48
2023/08/16 03:57:26;;;;;;;6.25;5.40;;;20.50;99.90;;;;;;5014347;28;20030;-49
2023/08/16 04:00:15;;;;;;;7.78;6.65;;;20.50;99.90;;;;;;5015214;28;20025;-51
2023/08/16 04:03:01;;;;;;;5.75;5.20;;;20.50;99.90;;;;;;5015010;28;20108;-48
2023/08/16 04:05:47;;;;;;;8.48;7.22;;;20.50;99.90;;;;;;5014940;28;20066;-48
2023/08/16 04:08:32;;;;;;;6.32;5.72;;;20.50;99.90;;;;;;5014741;28;20410;-50
2023/08/16 04:11:18;;;;;;;6.88;5.68;;;20.50;99.90;;;;;;4995037;28;20030;-52
2023/08/16 04:14:04;;;;;;;5.88;5.28;;;20.60;99.90;;;;;;5006527;28;20030;-49
2023/08/16 04:16:50;;;;;;;6.75;6.13;;;20.60;99.90;;;;;;5013415;28;20022;-49
2023/08/16 04:19:36;;;;;;;5.47;4.97;;;20.60;99.90;;;;;;5013883;28;20464;-52
2023/08/16 04:22:22;;;;;;;6.10;5.50;;;20.60;99.90;;;;;;5012110;28;20100;-48
2023/08/16 04:25:09;;;;;;;5.93;5.32;;;20.60;99.90;;;;;;5011855;28;20026;-48
2023/08/16 04:27:54;;;;;;;7.40;5.80;;;20.60;99.90;;;;;;5013029;28;20380;-50
2023/08/16 04:30:40;;;;;;;7.13;6.43;;;20.70;99.90;;;;;;5013520;28;20088;-46
2023/08/16 04:33:26;;;;;;;7.50;6.80;;;20.70;99.90;;;;;;5013518;28;20064;-47
2023/08/16 04:36:12;;;;;;;7.43;6.72;;;20.70;99.90;;;;;;5013027;28;20101;-48
2023/08/16 04:38:58;;;;;;;7.55;6.85;;;20.70;99.90;;;;;;5014167;28;20022;-49
2023/08/16 04:41:44;;;;;;;9.32;8.02;;;20.60;99.90;;;;;;5011977;28;20030;-54
2023/08/16 04:44:31;;;;;;;7.20;6.53;;;20.60;99.90;;;;;;5013663;28;20503;-51
2023/08/16 04:47:17;;;;;;;7.07;6.47;;;20.50;99.90;;;;;;5013692;28;20037;-48
2023/08/16 04:50:06;;;;;;;6.10;5.60;;;20.50;99.90;;;;;;5013056;28;20110;-51
2023/08/16 04:52:52;;;;;;;17.35;14.25;;;20.50;99.90;;;;;;5013234;28;20521;-50
2023/08/16 04:55:38;;;;;;;22.65;17.88;;;20.60;99.90;;;;;;4998824;28;20109;-55
2023/08/16 04:58:24;;;;;;;18.88;14.85;;;20.70;99.90;;;;;;5012100;28;20397;-54
2023/08/16 05:01:10;;;;;;;23.73;18.52;;;20.70;99.90;;;;;;5013500;28;20022;-53
2023/08/16 05:03:56;;;;;;;16.65;13.98;;;20.70;99.90;;;;;;5012988;28;20057;-49
2023/08/16 05:06:42;;;;;;;15.32;13.10;;;20.80;99.90;;;;;;5012312;28;20043;-46
2023/08/16 05:09:28;;;;;;;16.52;14.48;;;20.90;99.90;;;;;;5012498;28;20041;-52
2023/08/16 05:12:13;;;;;;;15.55;13.95;;;20.80;99.90;;;;;;5012508;28;20030;-51
2023/08/16 05:14:59;;;;;;;17.90;15.85;;;20.90;99.90;;;;;;5012757;28;20399;-54
2023/08/16 05:17:45;;;;;;;17.15;14.18;;;20.80;99.90;;;;;;5011888;28;20060;-49
2023/08/16 05:20:34;;;;;;;14.57;13.07;;;20.80;99.90;;;;;;5012305;28;20030;-54
2023/08/16 05:23:20;;;;;;;17.77;13.70;;;20.80;99.90;;;;;;5013458;28;20034;-51
2023/08/16 05:26:06;;;;;;;14.50;12.82;;;20.80;99.90;;;;;;5013098;28;20037;-49
2023/08/16 05:28:52;;;;;;;14.02;12.63;;;20.80;99.90;;;;;;5013516;28;20022;-54
2023/08/16 05:31:41;;;;;;;16.55;13.82;;;20.70;99.90;;;;;;5013171;28;20033;-48
2023/08/16 05:34:27;;;;;;;13.70;12.30;;;20.80;99.90;;;;;;5012281;28;20030;-51
2023/08/16 05:37:13;;;;;;;13.48;12.18;;;20.70;99.90;;;;;;5012447;28;20037;-49
2023/08/16 05:39:59;;;;;;;19.90;14.13;;;20.70;99.90;;;;;;5012295;28;20105;-51
2023/08/16 05:42:45;;;;;;;20.75;14.85;;;20.70;99.90;;;;;;5011996;28;20030;-46
2023/08/16 05:45:31;;;;;;;17.45;15.57;;;20.60;99.90;;;;;;5011627;28;20120;-46
2023/08/16 05:48:17;;;;;;;17.05;14.95;;;20.60;99.90;;;;;;5011861;28;20030;-53
2023/08/16 05:51:03;;;;;;;19.70;16.50;;;20.50;99.90;;;;;;5012025;28;20022;-51
2023/08/16 05:53:49;;;;;;;18.40;16.33;;;20.50;99.90;;;;;;5012007;28;20032;-48
2023/08/16 05:56:35;;;;;;;18.02;16.10;;;20.50;99.90;;;;;;4997183;28;20441;-46
2023/08/16 05:59:21;;;;;;;20.00;17.02;;;20.50;99.90;;;;;;5012214;28;20034;-46
2023/08/16 06:02:07;;;;;;;19.10;16.77;;;20.50;99.90;;;;;;5011842;28;20092;-49
2023/08/16 06:04:53;;;;;;;18.52;16.45;;;20.50;99.90;;;;;;5012103;28;20038;-47
2023/08/16 06:07:39;;;;;;;18.05;16.15;;;20.50;99.90;;;;;;5012093;28;20073;-47
2023/08/16 06:10:25;;;;;;;16.50;14.82;;;20.50;99.90;;;;;;5011846;28;20034;-47
2023/08/16 06:13:11;;;;;;;16.02;14.35;;;20.50;99.90;;;;;;5011638;28;20044;-48
2023/08/16 06:15:57;;;;;;;20.40;16.38;;;20.60;99.90;;;;;;5011418;28;20034;-49
2023/08/16 06:18:43;;;;;;;17.70;15.95;;;20.60;99.90;;;;;;5010966;28;20403;-46
2023/08/16 06:21:29;;;;;;;20.15;15.70;;;20.70;99.90;;;;;;5012072;28;20030;-46
2023/08/16 06:24:15;;;;;;;16.67;14.90;;;20.60;99.90;;;;;;5011533;28;20030;-49
2023/08/16 06:27:01;;;;;;;17.48;15.48;;;20.50;99.90;;;;;;5011751;28;20037;-52
2023/08/16 06:29:47;;;;;;;16.33;14.63;;;20.60;99.90;;;;;;4997733;28;20091;-50
2023/08/16 06:32:33;;;;;;;16.63;14.38;;;20.60;99.90;;;;;;5011915;28;20112;-49
2023/08/16 06:35:18;;;;;;;18.88;15.13;;;20.70;99.90;;;;;;5011508;28;20109;-49
2023/08/16 06:38:06;;;;;;;16.88;13.65;;;20.70;99.90;;;;;;5011204;28;20416;-48
2023/08/16 06:40:51;;;;;;;16.45;13.93;;;20.70;99.90;;;;;;5011107;28;20054;-48
2023/08/16 06:43:37;;;;;;;15.65;13.95;;;20.80;99.90;;;;;;5011044;28;20038;-50
2023/08/16 06:46:23;;;;;;;13.30;12.00;;;20.90;99.90;;;;;;5011120;28;20413;-51
2023/08/16 06:49:09;;;;;;;13.85;12.45;;;20.90;99.90;;;;;;5011761;28;20507;-48
2023/08/16 06:51:55;;;;;;;13.93;12.38;;;21.00;99.90;;;;;;5011401;28;20025;-52
2023/08/16 06:54:42;;;;;;;15.75;14.15;;;21.10;99.90;;;;;;5010970;28;20564;-54
2023/08/16 06:57:28;;;;;;;15.85;14.25;;;21.20;99.90;;;;;;5010961;28;20068;-51
2023/08/16 07:00:17;;;;;;;16.05;14.35;;;21.30;99.90;;;;;;5010599;28;20022;-48
2023/08/16 07:03:03;;;;;;;17.23;15.43;;;21.40;99.90;;;;;;4995934;28;20045;-49
2023/08/16 07:05:51;;;;;;;14.20;12.80;;;21.40;99.90;;;;;;5005329;28;20084;-50
2023/08/16 07:08:37;;;;;;;15.95;13.98;;;21.30;99.90;;;;;;5010274;28;20029;-46
2023/08/16 07:11:24;;;;;;;15.10;13.70;;;21.40;99.90;;;;;;5006203;28;20414;-50
2023/08/16 07:14:11;;;;;;;14.48;12.98;;;21.40;99.90;;;;;;5009933;28;20120;-46
2023/08/16 07:16:57;;;;;;;15.82;14.32;;;21.50;99.90;;;;;;5003441;28;20038;-47
2023/08/16 07:19:43;;;;;;;15.60;14.02;;;21.60;99.90;;;;;;5011194;28;20053;-48
2023/08/16 07:22:29;;;;;;;15.05;13.65;;;21.70;99.90;;;;;;4991212;28;20069;-49
2023/08/16 07:25:14;;;;;;;14.75;13.35;;;21.70;99.90;;;;;;5010278;28;20105;-51
2023/08/16 07:28:01;;;;;;;13.80;12.50;;;21.80;99.90;;;;;;5002180;28;20030;-49
2023/08/16 07:30:47;;;;;;;12.63;11.43;;;21.90;99.90;;;;;;4996065;28;20088;-52
2023/08/16 07:33:35;;;;;;;12.00;10.70;;;22.00;99.90;;;;;;5000623;28;20037;-51
2023/08/16 07:36:20;;;;;;;12.68;11.45;;;22.10;99.90;;;;;;5013107;28;20025;-56
2023/08/16 07:39:06;;;;;;;12.23;10.98;;;22.20;99.90;;;;;;5014666;28;20026;-47
2023/08/16 07:41:53;;;;;;;12.98;11.70;;;22.30;99.90;;;;;;5011019;28;20030;-47
2023/08/16 07:44:39;;;;;;;10.05;9.05;;;22.40;99.90;;;;;;5012780;28;20125;-50
2023/08/16 07:47:25;;;;;;;11.98;10.70;;;22.40;99.90;;;;;;5013872;28;20030;-50
2023/08/16 07:50:11;;;;;;;11.20;10.02;;;22.40;99.90;;;;;;5007156;28;20056;-51
2023/08/16 07:52:57;;;;;;;10.73;9.63;;;22.40;99.90;;;;;;5010788;28;20561;-47
2023/08/16 07:55:43;;;;;;;9.27;8.43;;;22.50;99.90;;;;;;5012080;28;20034;-50
2023/08/16 07:58:29;;;;;;;10.40;9.35;;;22.60;99.90;;;;;;5011120;28;20100;-49
2023/08/16 08:01:15;;;;;;;7.60;6.82;;;22.60;99.90;;;;;;5013927;28;20076;-46
2023/08/16 08:04:01;;;;;;;7.68;6.93;;;22.70;99.90;;;;;;5011234;28;20185;-51
2023/08/16 08:06:48;;;;;;;8.27;7.45;;;22.70;99.90;;;;;;5013252;28;20119;-47
2023/08/16 08:09:34;;;;;;;8.90;8.00;;;22.80;99.90;;;;;;5013765;28;20416;-52
2023/08/16 08:12:20;;;;;;;11.10;10.10;;;22.90;99.90;;;;;;5013259;28;20057;-53
2023/08/16 08:15:06;;;;;;;11.63;10.63;;;22.80;99.90;;;;;;5014146;28;20049;-45
2023/08/16 08:17:52;;;;;;;11.40;8.75;;;23.00;99.90;;;;;;5013914;28;20034;-46
2023/08/16 08:20:38;;;;;;;11.35;10.35;;;23.20;99.90;;;;;;5013507;28;20495;-47
2023/08/16 08:23:24;;;;;;;14.07;12.57;;;23.40;99.90;;;;;;5013842;28;20037;-53
2023/08/16 08:26:10;;;;;;;12.48;11.23;;;23.60;99.90;;;;;;5012842;28;20030;-51
2023/08/16 08:28:56;;;;;;;12.15;11.05;;;23.80;99.90;;;;;;5012275;28;20116;-56
2023/08/16 08:31:42;;;;;;;14.18;12.70;;;23.90;99.90;;;;;;5014927;28;20088;-54
2023/08/16 08:34:28;;;;;;;13.43;12.23;;;23.90;99.90;;;;;;5033763;28;20092;-55
2023/08/16 08:37:14;;;;;;;13.15;11.95;;;23.80;99.90;;;;;;5018209;28;20504;-57
2023/08/16 08:40:00;;;;;;;12.65;11.43;;;23.90;99.90;;;;;;5033685;28;20029;-56
2023/08/16 08:42:48;;;;;;;12.88;11.57;;;23.80;99.90;;;;;;5033457;28;20026;-55
2023/08/16 08:45:35;;;;;;;12.77;11.48;;;23.90;99.90;;;;;;5033389;28;20036;-53
2023/08/16 08:48:23;;;;;;;12.20;11.00;;;23.80;99.90;;;;;;5018939;28;20540;-53
2023/08/16 08:51:09;;;;;;;10.88;9.85;;;23.60;99.90;;;;;;5032338;28;20029;-56
2023/08/16 08:53:55;;;;;;;9.43;8.52;;;23.50;99.90;;;;;;5032394;28;20075;-53
2023/08/16 08:56:43;;;;;;;8.70;7.88;;;23.40;99.90;;;;;;5032032;28;20037;-54
2023/08/16 08:59:33;;;;;;;8.35;7.45;;;23.60;99.90;;;;;;5031964;28;20030;-57
2023/08/16 09:02:20;;;;;;;8.82;8.02;;;23.80;99.90;;;;;;5032969;28;20032;-52
2023/08/16 09:05:09;;;;;;;11.90;9.80;;;24.00;99.90;;;;;;5032491;28;20041;-53
2023/08/16 09:07:55;;;;;;;8.60;7.50;;;24.00;99.90;;;;;;5032157;28;20034;-53
2023/08/16 09:10:42;;;;;;;9.45;7.35;;;24.10;99.90;;;;;;5032337;28;20445;-54
2023/08/16 09:13:29;;;;;;;9.07;7.55;;;24.20;99.90;;;;;;5031704;28;20543;-49
2023/08/16 09:16:15;;;;;;;8.82;6.80;;;24.20;99.90;;;;;;5032597;28;20104;-56
2023/08/16 09:19:02;;;;;;;8.25;7.05;;;24.30;99.90;;;;;;5032753;28;20037;-57
2023/08/16 09:21:51;;;;;;;8.35;7.35;;;24.40;99.90;;;;;;5027970;28;20522;-52
2023/08/16 09:24:37;;;;;;;7.28;6.53;;;24.40;99.90;;;;;;5011978;28;20042;-54
2023/08/16 09:27:23;;;;;;;7.65;6.88;;;24.50;99.90;;;;;;5010788;28;20034;-53
2023/08/16 09:30:13;;;;;;;7.78;6.97;;;24.40;99.90;;;;;;5012304;28;20057;-55
2023/08/16 09:33:00;;;;;;;7.65;6.95;;;24.40;99.90;;;;;;5011191;28;20049;-56
2023/08/16 09:35:51;;;;;;;8.55;7.07;;;24.30;99.90;;;;;;5011690;28;20022;-54
2023/08/16 09:38:41;;;;;;;8.63;7.70;;;24.30;99.90;;;;;;5012324;28;20183;-55
2023/08/16 09:41:27;;;;;;;10.48;7.50;;;24.40;99.90;;;;;;5011944;28;20069;-53
2023/08/16 09:44:13;;;;;;;7.13;6.43;;;24.50;99.90;;;;;;5011280;28;20490;-54
2023/08/16 09:47:12;;;;;;;8.02;7.22;;;24.80;99.90;;;;;;5011933;28;20046;-53
2023/08/16 09:49:59;;;;;;;8.73;7.93;;;25.10;99.90;;;;;;5012156;28;20026;-55
2023/08/16 09:52:45;;;;;;;8.48;7.57;;;25.60;99.90;;;;;;5011727;28;20498;-55
2023/08/16 09:55:33;;;;;;;9.65;8.75;;;25.70;99.90;;;;;;5011305;28;20376;-56
2023/08/16 09:58:20;;;;;;;10.63;9.52;;;25.70;99.90;;;;;;5012093;28;20141;-52
2023/08/16 10:01:07;;;;;;;9.75;8.75;;;25.50;99.90;;;;;;5011402;28;20022;-55
2023/08/16 10:03:56;;;;;;;10.65;9.43;;;25.30;99.90;;;;;;5011909;28;20502;-57
2023/08/16 10:06:43;;;;;;;9.80;8.90;;;25.20;99.90;;;;;;5011866;28;20091;-55
2023/08/16 10:09:29;;;;;;;9.88;8.98;;;25.10;99.90;;;;;;5011902;28;20068;-54
2023/08/16 10:12:16;;;;;;;10.45;9.38;;;25.10;99.90;;;;;;5011383;28;20050;-56
2023/08/16 10:15:03;;;;;;;11.88;10.48;;;25.20;99.90;;;;;;5011885;28;20045;-55
2023/08/16 10:17:52;;;;;;;12.50;9.88;;;25.20;99.90;;;;;;5011107;28;20076;-53
2023/08/16 10:20:41;;;;;;;12.02;10.85;;;25.30;99.90;;;;;;5011850;28;20026;-49
2023/08/16 10:23:28;;;;;;;10.85;9.85;;;25.40;99.90;;;;;;5011383;28;20064;-50
2023/08/16 10:26:19;;;;;;;9.77;8.88;;;25.40;99.90;;;;;;5011881;28;20386;-55
2023/08/16 10:29:08;;;;;;;9.55;8.65;;;25.50;99.90;;;;;;5011699;28;20030;-53
2023/08/16 10:31:54;;;;;;;9.02;8.13;;;25.60;99.90;;;;;;5011604;28;20038;-54
2023/08/16 10:34:41;;;;;;;8.80;7.90;;;25.60;99.90;;;;;;5011029;28;20025;-55
2023/08/16 10:37:27;;;;;;;8.30;7.50;;;25.60;99.90;;;;;;5010318;28;20021;-52
2023/08/16 10:40:17;;;;;;;9.20;8.35;;;25.60;99.90;;;;;;5011439;28;20030;-55
2023/08/16 10:43:06;;;;;;;9.43;8.20;;;25.70;99.90;;;;;;5011397;28;20045;-54
2023/08/16 10:45:51;;;;;;;8.90;8.02;;;25.60;99.90;;;;;;5011686;28;20068;-57
2023/08/16 10:48:38;;;;;;;9.00;8.13;;;25.30;99.90;;;;;;5010959;28;20033;-53
2023/08/16 10:51:24;;;;;;;8.98;7.93;;;25.40;99.90;;;;;;5010986;28;20033;-54
2023/08/16 10:54:10;;;;;;;8.15;7.45;;;25.40;99.90;;;;;;5010615;28;20061;-51
2023/08/16 10:57:01;;;;;;;9.32;8.20;;;25.60;99.90;;;;;;5011104;28;20431;-53
2023/08/16 10:59:48;;;;;;;8.38;7.57;;;25.60;99.90;;;;;;5011599;28;20045;-54
2023/08/16 11:02:36;;;;;;;8.80;8.00;;;25.60;99.90;;;;;;5010937;28;20149;-55
2023/08/16 11:05:24;;;;;;;7.65;6.95;;;25.70;99.90;;;;;;5013774;28;20033;-57
2023/08/16 11:08:10;;;;;;;8.38;7.32;;;26.10;99.90;;;;;;5015128;28;20026;-57
2023/08/16 11:10:57;;;;;;;8.82;6.50;;;26.40;99.90;;;;;;5013898;28;20022;-57
2023/08/16 11:13:43;;;;;;;7.20;6.50;;;26.40;99.90;;;;;;5013300;28;20033;-56
2023/08/16 11:16:30;;;;;;;6.97;6.38;;;26.40;99.90;;;;;;4995644;28;20117;-56
2023/08/16 11:19:21;;;;;;;7.85;6.57;;;26.40;99.90;;;;;;4996288;28;20372;-55
2023/08/16 11:22:09;;;;;;;9.30;6.78;;;26.40;99.90;;;;;;4994887;28;20034;-54
2023/08/16 11:24:55;;;;;;;7.38;6.68;;;26.40;99.90;;;;;;4995831;28;20026;-55
2023/08/16 11:27:41;;;;;;;6.80;6.13;;;26.40;99.90;;;;;;5009827;28;20055;-51
2023/08/16 11:30:27;;;;;;;7.95;6.93;;;26.50;99.90;;;;;;4995111;28;20069;-55
2023/08/16 11:33:16;;;;;;;6.57;5.93;;;26.60;99.90;;;;;;4994984;28;20026;-55
2023/08/16 11:36:08;;;;;;;6.95;6.35;;;26.70;99.90;;;;;;4994698;28;20499;-57
2023/08/16 11:38:54;;;;;;;6.32;5.72;;;26.90;99.90;;;;;;5010642;28;20054;-50
2023/08/16 11:41:40;;;;;;;7.60;6.30;;;27.10;99.90;;;;;;5014564;28;20022;-56
2023/08/16 11:44:37;;;;;;;7.22;6.38;;;27.30;99.90;;;;;;5000465;28;20034;-58
2023/08/16 11:47:23;;;;;;;6.90;6.30;;;27.50;99.90;;;;;;5013896;28;20072;-55
2023/08/16 11:50:10;;;;;;;7.75;6.18;;;27.70;99.90;;;;;;5013942;28;20572;-57
2023/08/16 11:53:00;;;;;;;8.82;6.95;;;27.70;99.90;;;;;;5014507;28;20113;-57
2023/08/16 11:55:58;;;;;;;10.18;6.47;;;27.80;99.90;;;;;;5014457;28;20022;-53
2023/08/16 11:58:48;;;;;;;7.28;6.57;;;27.90;99.90;;;;;;5014327;28;20025;-56
2023/08/16 12:01:37;;;;;;;8.75;7.05;;;28.00;99.90;;;;;;5014641;28;20552;-54
2023/08/16 12:04:23;;;;;;;7.40;6.70;;;28.00;99.90;;;;;;5015016;28;20653;-55
2023/08/16 12:07:10;;;;;;;8.02;7.22;;;28.00;99.90;;;;;;5014720;28;20034;-56
2023/08/16 12:09:56;;;;;;;7.38;6.68;;;27.90;99.90;;;;;;5014663;28;20037;-54
2023/08/16 12:12:42;;;;;;;7.72;6.97;;;27.80;99.90;;;;;;5014474;28;20077;-57
2023/08/16 12:15:28;;;;;;;9.07;7.45;;;27.50;99.90;;;;;;5013050;28;20075;-55
2023/08/16 12:18:15;;;;;;;8.57;7.78;;;27.40;99.90;;;;;;5000262;28;20022;-54
2023/08/16 12:21:00;;;;;;;8.23;6.93;;;27.50;99.90;;;;;;5014415;28;20022;-56
2023/08/16 12:23:47;;;;;;;9.88;7.25;;;27.40;99.90;;;;;;5014143;28;20026;-57
2023/08/16 12:26:33;;;;;;;8.10;7.30;;;27.50;99.90;;;;;;4993540;28;20172;-54
2023/08/16 12:29:19;;;;;;;8.38;6.88;;;27.50;99.90;;;;;;4993802;28;20026;-55
2023/08/16 12:32:05;;;;;;;7.57;6.15;;;27.40;99.90;;;;;;4994746;28;20113;-52
2023/08/16 12:34:51;;;;;;;6.75;6.05;;;27.50;99.90;;;;;;4993893;28;20450;-53
2023/08/16 12:37:36;;;;;;;7.32;6.45;;;27.70;99.90;;;;;;4993523;28;20030;-53
2023/08/16 12:40:26;;;;;;;7.40;6.70;;;28.00;99.90;;;;;;4993691;28;20033;-55
2023/08/16 12:43:12;;;;;;;7.47;6.75;;;28.20;99.90;;;;;;5010183;28;20529;-56
2023/08/16 12:46:02;;;;;;;6.93;6.07;;;27.90;99.90;;;;;;5013317;28;20049;-51
2023/08/16 12:48:48;;;;;;;7.75;6.70;;;27.70;99.90;;;;;;5012896;28;20526;-53
2023/08/16 12:51:36;;;;;;;7.55;6.45;;;27.60;99.90;;;;;;5013400;28;20065;-56
2023/08/16 12:54:22;;;;;;;7.85;7.15;;;27.40;99.90;;;;;;5012718;28;20026;-53
2023/08/16 12:57:08;;;;;;;8.25;7.05;;;27.30;99.90;;;;;;5013053;28;20099;-57
2023/08/16 12:59:54;;;;;;;8.80;7.35;;;27.20;99.90;;;;;;5013373;28;20572;-55
2023/08/16 13:02:40;;;;;;;7.97;7.25;;;27.10;99.90;;;;;;4998750;28;20032;-54
2023/08/16 13:05:26;;;;;;;7.53;6.75;;;27.10;99.90;;;;;;5012755;28;20083;-56
2023/08/16 13:08:12;;;;;;;9.30;8.40;;;27.10;99.90;;;;;;5012928;28;20517;-57
2023/08/16 13:10:58;;;;;;;10.63;9.63;;;27.00;99.90;;;;;;5012634;28;20049;-56
2023/08/16 13:13:44;;;;;;;10.05;9.13;;;27.10;99.90;;;;;;5024833;28;20517;-53
2023/08/16 13:16:29;;;;;;;10.48;9.35;;;27.10;99.90;;;;;;5032469;28;20079;-57
2023/08/16 13:19:15;;;;;;;9.50;8.63;;;27.20;99.90;;;;;;5032725;28;20608;-51
2023/08/16 13:22:01;;;;;;;9.90;9.10;;;27.40;99.90;;;;;;5013880;28;20588;-55
2023/08/16 13:24:47;;;;;;;10.15;9.25;;;27.50;99.90;;;;;;5015943;28;20049;-50
2023/08/16 13:27:33;;;;;;;61.50;51.22;;;27.70;99.50;;;;;;5013249;28;20030;-52
2023/08/16 13:30:19;;;;;;;29.17;25.30;;;27.80;98.90;;;;;;5012413;28;20152;-54
2023/08/16 13:33:07;;;;;;;16.77;15.05;;;27.90;98.90;;;;;;5013660;28;20030;-56
2023/08/16 13:35:53;;;;;;;11.65;10.50;;;28.00;99.40;;;;;;5011463;28;20033;-52
2023/08/16 13:38:39;;;;;;;10.25;9.25;;;28.00;99.20;;;;;;5012566;28;20054;-56
2023/08/16 13:41:25;;;;;;;10.70;9.30;;;28.10;99.40;;;;;;5010226;28;20072;-54
2023/08/16 13:44:11;;;;;;;9.32;7.97;;;28.10;99.40;;;;;;5010611;28;20084;-55
2023/08/16 13:46:57;;;;;;;9.55;7.30;;;28.00;98.90;;;;;;5009725;28;20057;-55
2023/08/16 13:49:45;;;;;;;8.10;7.22;;;27.90;98.40;;;;;;5010427;28;20026;-54
2023/08/16 13:52:31;;;;;;;8.30;7.45;;;28.00;98.90;;;;;;5010334;28;20112;-55
2023/08/16 13:55:17;;;;;;;7.65;6.95;;;28.30;99.20;;;;;;5010625;28;20061;-54
2023/08/16 13:58:03;;;;;;;7.57;6.97;;;28.50;98.40;;;;;;5010631;28;20109;-52
2023/08/16 14:00:49;;;;;;;13.07;11.88;;;28.50;98.00;;;;;;5011089;28;20037;-54
2023/08/16 14:03:35;;;;;;;11.95;10.77;;;28.40;97.70;;;;;;5011265;28;20498;-55
2023/08/16 14:06:21;;;;;;;12.48;11.38;;;28.40;97.30;;;;;;5011137;28;20120;-52
2023/08/16 14:09:08;;;;;;;11.57;10.48;;;28.70;97.30;;;;;;5011740;28;20034;-53
2023/08/16 14:11:54;;;;;;;10.80;9.90;;;29.30;96.70;;;;;;5011071;28;20582;-56
2023/08/16 14:14:40;;;;;;;10.13;9.23;;;29.40;96.00;;;;;;5011333;28;20040;-56
2023/08/16 14:17:26;;;;;;;9.25;8.45;;;29.80;96.00;;;;;;5011094;28;20033;-56
2023/08/16 14:20:12;;;;;;;9.05;8.15;;;30.30;96.20;;;;;;5010412;28;20037;-57